Time;durP1;ratioP1;P1;durP2;ratioP2;P2;SDS_P1;SDS_P2;PMS_P1;PMS_P2;Temp;Humidity;BMP_temperature;BMP_pressure;BME280_temperature;BME280_humidity;BME280_pressure;Samples;Min_cycle;Max_cycle;Signal;HPM_P1;HPM_P2
2021/07/12 00:02:54;;;;;;;10.45;9.52;;;;;;;22.26;65.21;101445.13;6175218;28;20253;-54
2021/07/12 00:06:15;;;;;;;10.85;9.85;;;;;;;22.09;65.62;101443.22;6191072;28;20573;-49
2021/07/12 00:09:36;;;;;;;12.13;11.13;;;;;;;22.12;65.36;101448.41;6193277;28;20234;-50
2021/07/12 00:12:58;;;;;;;9.63;8.82;;;;;;;21.99;65.99;101444.59;6165767;28;20234;-50
2021/07/12 00:16:19;;;;;;;10.40;9.50;;;;;;;21.97;66.08;101446.47;6177022;28;20656;-47
2021/07/12 00:19:40;;;;;;;9.98;9.05;;;;;;;22.10;65.35;101444.97;6189461;28;20241;-50
2021/07/12 00:23:01;;;;;;;8.88;8.27;;;;;;;22.14;65.01;101440.34;6190809;28;20647;-52
2021/07/12 00:26:22;;;;;;;9.85;9.00;;;;;;;22.07;65.00;101442.44;6177389;28;20246;-50
2021/07/12 00:29:44;;;;;;;9.48;8.70;;;;;;;22.02;65.12;101441.78;6183426;28;20316;-48
2021/07/12 00:33:05;;;;;;;10.50;9.70;;;;;;;21.99;65.09;101441.94;6174381;28;20245;-51
2021/07/12 00:36:26;;;;;;;8.65;8.02;;;;;;;21.95;65.14;101440.38;6191067;28;20674;-49
2021/07/12 00:39:47;;;;;;;10.43;9.40;;;;;;;22.05;64.67;101436.34;6184748;28;20603;-52
2021/07/12 00:43:09;;;;;;;8.52;7.80;;;;;;;21.96;64.53;101428.81;6191776;28;20237;-49
2021/07/12 00:46:31;;;;;;;9.55;8.82;;;;;;;21.89;64.83;101435.34;6191710;28;20230;-52
2021/07/12 00:49:54;;;;;;;8.52;7.93;;;;;;;21.79;65.46;101434.91;6184101;28;20298;-54
2021/07/12 00:53:15;;;;;;;10.05;9.18;;;;;;;21.58;66.04;101434.13;6188844;28;20316;-52
2021/07/12 00:56:38;;;;;;;9.23;8.63;;;;;;;21.71;65.57;101432.59;6191686;28;20238;-53
2021/07/12 01:00:00;;;;;;;10.43;9.43;;;;;;;21.88;64.67;101433.63;6191857;28;20242;-53
2021/07/12 01:03:23;;;;;;;9.60;8.70;;;;;;;21.83;64.77;101437.38;6185047;28;20229;-49
2021/07/12 01:06:44;;;;;;;9.25;8.45;;;;;;;21.77;64.99;101437.66;6188153;28;20262;-51
2021/07/12 01:10:07;;;;;;;9.57;8.68;;;;;;;21.83;64.59;101437.38;6189663;28;20241;-48
2021/07/12 01:13:35;;;;;;;9.18;8.48;;;;;;;21.69;64.88;101433.63;6189870;28;20312;-54
2021/07/12 01:17:11;;;;;;;9.30;8.52;;;;;;;21.48;65.75;101432.81;6199337;28;20655;-51
2021/07/12 01:21:02;;;;;;;9.32;8.55;;;;;;;21.51;65.69;101436.19;6162363;28;20257;-50
2021/07/12 01:24:51;;;;;;;9.65;8.68;;;;;;;21.24;66.15;101440.88;6186020;28;20222;-52
2021/07/12 01:29:02;;;;;;;9.98;9.20;;;;;;;21.14;66.78;101444.88;6182560;28;20246;-51
2021/07/12 01:32:43;;;;;;;9.25;7.78;;;;;;;21.29;66.51;101441.56;6185663;28;20242;-51
2021/07/12 01:36:14;;;;;;;9.32;8.70;;;;;;;21.28;66.38;101431.00;6189319;28;20834;-53
2021/07/12 01:39:44;;;;;;;9.38;8.73;;;;;;;21.23;66.20;101420.63;6187039;28;20229;-52
2021/07/12 01:43:17;;;;;;;9.65;8.95;;;;;;;21.20;66.64;101420.75;6187319;28;22388;-49
2021/07/12 01:46:47;;;;;;;11.23;10.30;;;;;;;21.04;67.04;101424.06;6189854;28;20229;-49
2021/07/12 01:50:15;;;;;;;9.32;8.63;;;;;;;20.72;67.66;101425.44;6184557;28;20234;-51
2021/07/12 01:53:56;;;;;;;9.63;8.82;;;;;;;21.09;66.69;101412.41;6187946;28;20237;-50
2021/07/12 01:57:23;;;;;;;10.20;9.40;;;;;;;21.08;66.55;101402.78;6181281;28;20230;-50
2021/07/12 02:00:46;;;;;;;10.20;9.15;;;;;;;21.09;66.42;101401.81;6181013;28;20230;-51
2021/07/12 02:04:09;;;;;;;10.10;9.35;;;;;;;21.16;65.69;101411.22;6193799;28;20233;-49
2021/07/12 02:07:36;;;;;;;10.65;9.68;;;;;;;20.33;68.27;101406.75;6186345;28;20226;-48
2021/07/12 02:11:00;;;;;;;8.63;7.90;;;;;;;20.74;67.37;101393.63;6179485;28;20314;-51
2021/07/12 02:14:29;;;;;;;9.48;8.80;;;;;;;20.92;66.31;101395.50;6190066;28;20229;-52
2021/07/12 02:17:54;;;;;;;9.75;9.02;;;;;;;20.52;67.67;101391.84;6187141;28;20221;-47
2021/07/12 02:21:32;;;;;;;10.27;9.48;;;;;;;20.79;66.77;101389.84;6180614;28;20525;-48
2021/07/12 02:25:00;;;;;;;9.52;8.68;;;;;;;20.71;67.35;101389.31;6185651;28;20519;-49
2021/07/12 02:28:22;;;;;;;10.00;9.10;;;;;;;20.44;68.08;101388.66;6180172;28;20230;-52
2021/07/12 02:31:45;;;;;;;11.80;10.80;;;;;;;20.67;67.40;101381.59;6184904;28;20237;-52
2021/07/12 02:35:08;;;;;;;10.55;9.60;;;;;;;20.78;66.88;101384.63;6182156;28;20230;-51
2021/07/12 02:38:30;;;;;;;10.65;9.85;;;;;;;20.69;67.51;101379.75;6189027;28;21144;-51
2021/07/12 02:41:53;;;;;;;10.13;9.23;;;;;;;20.65;67.26;101379.00;6189453;28;20510;-50
2021/07/12 02:45:17;;;;;;;12.52;11.32;;;;;;;20.54;67.90;101387.34;6181976;28;20624;-50
2021/07/12 02:48:42;;;;;;;16.15;14.55;;;;;;;20.26;68.82;101385.00;6184534;28;20233;-49
2021/07/12 02:52:10;;;;;;;15.68;14.27;;;;;;;20.29;68.89;101379.56;6192819;28;20604;-51
2021/07/12 02:55:31;;;;;;;20.38;18.58;;;;;;;20.48;68.02;101379.69;6181467;28;20222;-49
2021/07/12 02:58:53;;;;;;;22.88;21.08;;;;;;;20.43;68.53;101373.69;6187869;28;20230;-48
2021/07/12 03:02:17;;;;;;;15.05;13.93;;;;;;;20.38;68.65;101362.47;6186079;28;20226;-49
2021/07/12 03:05:38;;;;;;;13.52;12.43;;;;;;;20.40;68.21;101355.34;6174641;28;20362;-52
2021/07/12 03:09:04;;;;;;;11.68;10.82;;;;;;;20.59;67.31;101356.31;6178573;28;20242;-52
2021/07/12 03:12:31;;;;;;;10.82;10.02;;;;;;;20.34;68.41;101358.25;6182795;28;20237;-49
2021/07/12 03:15:57;;;;;;;10.57;9.68;;;;;;;20.53;67.56;101355.66;6173392;28;20233;-49
2021/07/12 03:19:25;;;;;;;11.00;10.10;;;;;;;20.55;66.87;101357.34;6188470;28;20324;-51
2021/07/12 03:22:50;;;;;;;10.32;9.50;;;;;;;20.51;67.45;101363.69;6194117;28;20221;-51
2021/07/12 03:26:14;;;;;;;9.88;9.07;;;;;;;20.52;67.30;101361.91;6192812;28;20316;-48
2021/07/12 03:29:37;;;;;;;9.65;8.68;;;;;;;20.58;66.75;101353.69;6192302;28;22440;-50
2021/07/12 03:33:00;;;;;;;8.93;8.23;;;;;;;20.34;67.55;101353.81;6189861;28;20230;-52
2021/07/12 03:36:22;;;;;;;10.27;9.27;;;;;;;20.48;66.84;101347.94;6190947;28;20230;-49
2021/07/12 03:39:44;;;;;;;12.27;11.18;;;;;;;20.41;67.17;101354.38;6187747;28;20222;-54
2021/07/12 03:43:12;;;;;;;10.40;9.60;;;;;;;20.38;67.40;101351.91;6179885;28;20261;-48
2021/07/12 03:46:33;;;;;;;11.50;10.45;;;;;;;20.54;66.94;101347.66;6193517;28;20222;-48
2021/07/12 03:50:11;;;;;;;11.70;10.68;;;;;;;20.68;66.31;101352.41;6186905;28;20329;-51
2021/07/12 03:53:32;;;;;;;11.02;10.13;;;;;;;20.74;66.11;101353.91;6188438;28;20237;-53
2021/07/12 03:56:53;;;;;;;13.10;11.77;;;;;;;20.54;66.62;101345.03;6193059;28;20226;-53
2021/07/12 04:00:16;;;;;;;11.63;10.68;;;;;;;20.46;67.01;101340.06;6187479;28;20234;-53
2021/07/12 04:03:37;;;;;;;9.82;9.02;;;;;;;20.58;66.70;101341.31;6189167;28;20226;-49
2021/07/12 04:06:59;;;;;;;9.70;8.63;;;;;;;20.83;65.61;101342.94;6179189;28;20242;-48
2021/07/12 04:10:21;;;;;;;8.90;8.23;;;;;;;20.81;65.81;101347.44;6188904;28;20234;-50
2021/07/12 04:13:42;;;;;;;9.77;8.88;;;;;;;21.04;64.88;101342.00;6189425;28;20238;-52
2021/07/12 04:17:04;;;;;;;9.90;9.00;;;;;;;21.02;64.69;101337.72;6188244;28;20599;-54
2021/07/12 04:20:24;;;;;;;9.48;8.75;;;;;;;21.14;63.96;101333.66;6174474;28;20233;-54
2021/07/12 04:23:47;;;;;;;10.88;9.88;;;;;;;21.08;64.28;101340.06;6183244;28;20265;-48
2021/07/12 04:27:09;;;;;;;10.27;9.38;;;;;;;21.18;63.96;101327.28;6185488;28;20250;-49
2021/07/12 04:30:30;;;;;;;8.93;8.32;;;;;;;21.16;64.12;101335.28;6184477;28;20230;-51
2021/07/12 04:33:51;;;;;;;8.45;7.75;;;;;;;21.27;63.38;101340.09;6191042;28;20238;-49
2021/07/12 04:37:11;;;;;;;8.93;8.23;;;;;;;21.32;63.48;101339.88;6189065;28;20237;-52
2021/07/12 04:40:34;;;;;;;9.68;8.85;;;;;;;21.39;63.62;101331.59;6180031;28;20237;-50
2021/07/12 04:43:54;;;;;;;8.50;7.70;;;;;;;21.49;63.07;101336.50;6185129;28;20229;-48
2021/07/12 04:47:15;;;;;;;8.35;7.65;;;;;;;21.49;63.04;101341.78;6187359;28;20799;-49
2021/07/12 04:50:37;;;;;;;9.50;7.85;;;;;;;21.48;63.09;101338.28;6172665;28;20234;-50
2021/07/12 04:54:02;;;;;;;8.82;7.93;;;;;;;21.54;63.02;101337.13;6178757;28;20242;-48
2021/07/12 04:57:24;;;;;;;8.02;7.43;;;;;;;21.67;62.70;101332.97;6189441;28;20225;-51
2021/07/12 05:00:47;;;;;;;8.05;7.35;;;;;;;21.86;62.09;101324.16;6182552;28;20623;-51
2021/07/12 05:04:08;;;;;;;16.08;10.20;;;;;;;22.00;61.70;101327.84;6173562;28;20549;-49
2021/07/12 05:07:29;;;;;;;10.52;9.55;;;;;;;21.93;61.88;101330.88;6188734;28;20244;-52
2021/07/12 05:10:50;;;;;;;10.48;9.55;;;;;;;21.96;61.78;101330.72;6184954;28;20293;-50
2021/07/12 05:14:12;;;;;;;8.85;7.60;;;;;;;22.16;61.10;101330.59;6187124;28;20321;-50
2021/07/12 05:17:33;;;;;;;8.95;8.25;;;;;;;22.29;60.66;101330.03;6182775;28;21123;-50
2021/07/12 05:20:56;;;;;;;8.82;8.15;;;;;;;22.16;60.76;101330.59;6168155;28;20234;-51
2021/07/12 05:24:17;;;;;;;7.13;6.50;;;;;;;22.38;60.80;101332.22;6187132;28;20229;-50
2021/07/12 05:27:38;;;;;;;8.52;7.82;;;;;;;22.66;59.52;101325.50;6184269;28;20234;-54
2021/07/12 05:31:01;;;;;;;8.13;7.43;;;;;;;22.78;59.00;101317.75;6184262;28;20261;-49
2021/07/12 05:34:22;;;;;;;7.35;6.85;;;;;;;22.88;59.22;101320.78;6184787;28;20230;-49
2021/07/12 05:37:43;;;;;;;8.18;7.25;;;;;;;22.89;58.96;101313.66;6182155;28;20264;-49
2021/07/12 05:41:04;;;;;;;7.22;6.53;;;;;;;22.75;59.66;101323.22;6181750;28;20242;-62
2021/07/12 05:44:24;;;;;;;7.20;6.70;;;;;;;23.16;58.10;101319.34;6180729;28;20316;-61
2021/07/12 05:47:47;;;;;;;9.63;8.63;;;;;;;22.45;59.75;101322.13;6184569;28;20237;-62
2021/07/12 05:51:08;;;;;;;8.00;7.40;;;;;;;22.89;58.89;101319.84;6181660;28;20535;-63
2021/07/12 05:54:29;;;;;;;8.10;7.30;;;;;;;22.99;58.78;101318.44;6183586;28;20234;-63
2021/07/12 05:57:49;;;;;;;10.23;9.32;;;;;;;22.57;60.03;101321.53;6188405;28;20316;-63
2021/07/12 06:01:11;;;;;;;7.53;6.93;;;;;;;22.99;59.09;101315.78;6176848;28;20606;-65
2021/07/12 06:04:34;;;;;;;6.28;5.80;;;;;;;23.29;57.86;101316.88;6182412;28;20237;-64
2021/07/12 06:07:55;;;;;;;6.90;6.30;;;;;;;23.41;57.57;101323.31;6184259;28;20238;-63
2021/07/12 06:11:16;;;;;;;7.03;6.53;;;;;;;23.31;57.65;101320.31;6184005;28;20620;-64
2021/07/12 06:14:37;;;;;;;6.53;6.03;;;;;;;23.78;56.90;101314.16;6179351;28;20249;-63
2021/07/12 06:17:58;;;;;;;8.65;8.00;;;;;;;24.02;55.90;101316.38;6179647;28;20530;-63
2021/07/12 06:21:20;;;;;;;8.25;7.55;;;;;;;23.28;57.54;101318.66;6171260;28;20246;-66
2021/07/12 06:24:41;;;;;;;7.45;6.95;;;;;;;23.24;58.00;101321.56;6184305;28;20241;-66
2021/07/12 06:28:03;;;;;;;8.63;7.85;;;;;;;23.42;57.71;101319.72;6181521;28;20944;-65
2021/07/12 06:31:24;;;;;;;9.07;8.20;;;;;;;23.52;57.29;101321.78;6186382;28;20638;-64
2021/07/12 06:34:45;;;;;;;7.47;6.82;;;;;;;23.93;56.40;101317.78;6186771;28;20238;-65
2021/07/12 06:38:07;;;;;;;8.30;7.57;;;;;;;23.55;56.35;101318.09;6182806;28;20229;-64
2021/07/12 06:41:28;;;;;;;8.13;7.53;;;;;;;24.00;56.37;101316.47;6182788;28;20663;-65
2021/07/12 06:44:49;;;;;;;7.57;6.97;;;;;;;24.10;55.23;101311.47;6184007;28;20641;-64
2021/07/12 06:48:11;;;;;;;7.10;6.50;;;;;;;24.37;54.63;101303.69;6181918;28;20239;-64
2021/07/12 06:51:33;;;;;;;9.10;8.40;;;;;;;24.36;54.73;101301.94;6184487;28;20237;-66
2021/07/12 06:54:56;;;;;;;7.65;6.95;;;;;;;24.62;54.37;101299.56;6192662;28;20847;-65
2021/07/12 06:58:18;;;;;;;8.45;7.72;;;;;;;24.16;54.99;101293.34;6190448;28;20230;-64
2021/07/12 07:01:39;;;;;;;6.78;6.28;;;;;;;24.79;53.94;101290.56;6184854;28;20260;-64
2021/07/12 07:05:00;;;;;;;7.78;7.18;;;;;;;24.89;53.21;101292.56;6185976;28;20233;-65
2021/07/12 07:08:21;;;;;;;8.48;7.78;;;;;;;24.82;53.86;101288.56;6175272;28;20226;-65
2021/07/12 07:11:45;;;;;;;7.15;6.55;;;;;;;24.83;53.80;101284.06;6185661;28;20233;-64
2021/07/12 07:15:07;;;;;;;7.93;7.18;;;;;;;24.51;54.92;101282.44;6183691;28;20241;-64
2021/07/12 07:18:28;;;;;;;8.45;7.65;;;;;;;24.88;53.83;101282.84;6181170;28;20257;-65
2021/07/12 07:21:54;;;;;;;6.97;6.35;;;;;;;24.96;53.52;101280.56;6168917;28;20691;-54
2021/07/12 07:25:15;;;;;;;8.13;7.57;;;;;;;24.87;53.16;101270.50;6185843;28;20753;-52
2021/07/12 07:28:40;;;;;;;8.75;8.00;;;;;;;25.15;53.48;101269.59;6182568;28;20622;-54
2021/07/12 07:32:01;;;;;;;8.55;7.72;;;;;;;25.31;52.78;101269.50;6190435;28;20234;-56
2021/07/12 07:35:22;;;;;;;8.00;7.20;;;;;;;25.21;52.70;101263.03;6190573;28;20230;-52
2021/07/12 07:38:42;;;;;;;8.20;7.53;;;;;;;25.34;52.66;101264.00;6184103;28;20226;-56
2021/07/12 07:42:04;;;;;;;7.65;7.10;;;;;;;24.93;53.25;101259.44;6186039;28;20971;-53
2021/07/12 07:45:28;;;;;;;7.25;6.55;;;;;;;25.50;52.54;101255.84;6187608;28;20230;-49
2021/07/12 07:48:49;;;;;;;7.60;6.90;;;;;;;25.35;52.56;101260.34;6188369;28;20234;-51
2021/07/12 07:52:10;;;;;;;8.60;7.80;;;;;;;25.69;51.88;101255.50;6184243;28;20242;-51
2021/07/12 07:55:31;;;;;;;7.88;7.18;;;;;;;25.70;51.86;101257.19;6190634;28;20233;-50
2021/07/12 07:58:52;;;;;;;8.23;7.45;;;;;;;25.98;50.64;101252.75;6183384;28;20245;-52
2021/07/12 08:02:15;;;;;;;7.55;6.90;;;;;;;25.87;51.08;101250.75;6177487;28;20789;-48
2021/07/12 08:05:36;;;;;;;7.72;7.13;;;;;;;25.64;51.24;101246.94;6188848;28;20955;-53
2021/07/12 08:08:57;;;;;;;7.82;7.13;;;;;;;25.83;50.59;101253.75;6180924;28;20229;-48
2021/07/12 08:12:18;;;;;;;7.95;7.35;;;;;;;25.82;50.17;101254.69;6187891;28;20229;-51
2021/07/12 08:15:39;;;;;;;6.53;6.15;;;;;;;25.82;50.87;101252.88;6191021;28;20328;-54
2021/07/12 08:19:01;;;;;;;7.60;6.90;;;;;;;26.01;50.64;101257.88;6185598;28;20574;-49
2021/07/12 08:22:22;;;;;;;8.10;7.25;;;;;;;26.16;50.29;101258.66;6195603;28;20325;-49
2021/07/12 08:25:43;;;;;;;7.20;6.70;;;;;;;26.76;49.65;101249.22;6189160;28;20231;-50
2021/07/12 08:29:04;;;;;;;7.05;6.65;;;;;;;26.66;49.75;101253.50;6188789;28;20230;-51
2021/07/12 08:32:25;;;;;;;7.75;7.05;;;;;;;26.66;49.18;101243.66;6182530;28;20570;-54
2021/07/12 08:35:48;;;;;;;7.15;6.65;;;;;;;26.94;48.38;101241.69;6177104;28;20360;-50
2021/07/12 08:39:10;;;;;;;6.88;6.38;;;;;;;27.04;48.01;101244.56;6181499;28;20257;-50
2021/07/12 08:42:31;;;;;;;6.60;6.00;;;;;;;27.13;47.93;101240.38;6179348;28;20321;-52
2021/07/12 08:45:52;;;;;;;8.50;7.50;;;;;;;27.04;48.25;101236.53;6182892;28;20226;-56
2021/07/12 08:49:13;;;;;;;7.45;6.85;;;;;;;27.18;48.20;101238.22;6179934;28;20503;-52
2021/07/12 08:52:36;;;;;;;13.25;7.40;;;;;;;27.41;46.88;101237.44;6183109;28;20630;-53
2021/07/12 08:55:57;;;;;;;7.85;7.15;;;;;;;27.66;45.96;101238.28;6180844;28;20245;-54
2021/07/12 08:59:28;;;;;;;7.57;6.97;;;;;;;27.66;45.90;101239.13;6179070;28;20253;-55
2021/07/12 09:02:48;;;;;;;6.68;6.05;;;;;;;27.67;45.89;101237.31;6180842;28;20655;-53
2021/07/12 09:06:11;;;;;;;6.13;5.72;;;;;;;27.77;45.90;101229.47;6177313;28;20615;-55
2021/07/12 09:09:34;;;;;;;6.35;5.97;;;;;;;28.06;45.13;101229.94;6182749;28;20493;-69
2021/07/12 09:12:56;;;;;;;6.18;5.78;;;;;;;28.32;44.01;101230.59;6181303;28;20266;-68
2021/07/12 09:16:28;;;;;;;6.57;6.07;;;;;;;28.45;44.13;101226.00;6179430;28;20233;-69
2021/07/12 09:19:49;;;;;;;6.47;5.97;;;;;;;28.26;44.45;101221.22;6179742;28;20242;-73
2021/07/12 09:23:21;;;;;;;6.07;5.57;;;;;;;28.53;43.41;101219.22;6173726;28;20230;-71
2021/07/12 09:26:45;;;;;;;6.32;5.93;;;;;;;28.57;44.04;101218.00;6181615;28;20229;-72
2021/07/12 09:30:09;;;;;;;6.03;5.63;;;;;;;28.60;43.70;101217.78;6186525;28;20321;-72
2021/07/12 09:33:30;;;;;;;6.20;5.80;;;;;;;27.95;44.43;101214.69;6168008;28;20226;-72
2021/07/12 09:36:51;;;;;;;6.68;5.93;;;;;;;28.57;43.08;101212.66;6179111;28;20229;-72
2021/07/12 09:40:15;;;;;;;5.88;5.47;;;;;;;28.20;43.91;101215.50;6177741;28;20523;-71
2021/07/12 09:43:38;;;;;;;6.10;5.70;;;;;;;28.01;44.99;101203.50;6180298;28;20304;-73
2021/07/12 09:47:05;;;;;;;6.13;5.72;;;;;;;28.16;44.84;101197.97;6177031;28;20230;-72
2021/07/12 09:50:27;;;;;;;5.68;5.28;;;;;;;28.25;44.28;101203.47;6178668;28;20321;-71
2021/07/12 09:53:48;;;;;;;6.25;5.65;;;;;;;28.90;43.15;101198.38;6174461;28;20238;-69
2021/07/12 09:57:12;;;;;;;5.88;5.55;;;;;;;29.42;41.73;101196.81;6180919;28;20245;-69
2021/07/12 10:00:34;;;;;;;5.75;5.35;;;;;;;29.05;42.95;101207.03;6172759;28;20225;-68
2021/07/12 10:03:57;;;;;;;5.70;5.18;;;;;;;29.44;42.22;101196.69;6174694;28;20618;-72
2021/07/12 10:07:18;;;;;;;5.53;5.22;;;;;;;29.74;41.49;101187.09;6177440;28;20233;-75
2021/07/12 10:10:38;;;;;;;6.13;5.72;;;;;;;28.07;42.42;101184.34;6173772;28;20237;-72
2021/07/12 10:14:00;;;;;;;6.10;5.70;;;;;;;29.73;41.28;101178.19;6182328;28;20242;-64
2021/07/12 10:17:23;;;;;;;5.57;5.10;;;;;;;28.79;42.15;101180.50;6177272;28;20233;-64
2021/07/12 10:20:44;;;;;;;5.38;5.00;;;;;;;28.95;40.83;101180.09;6175787;28;20234;-65
2021/07/12 10:24:07;;;;;;;5.47;5.18;;;;;;;28.85;40.82;101169.28;6184917;28;20237;-63
2021/07/12 10:27:29;;;;;;;5.70;5.18;;;;;;;28.53;41.84;101162.97;6186034;28;20249;-63
2021/07/12 10:30:50;;;;;;;6.03;5.63;;;;;;;28.86;41.11;101160.25;6182694;28;20328;-64
2021/07/12 10:34:27;;;;;;;6.63;5.88;;;;;;;28.72;41.87;101157.84;6170573;28;20234;-63
2021/07/12 10:37:59;;;;;;;5.50;5.10;;;;;;;28.87;41.58;101147.72;6183942;28;20233;-63
2021/07/12 10:41:21;;;;;;;5.75;5.32;;;;;;;29.13;40.88;101145.59;6180336;28;20274;-63
2021/07/12 10:45:09;;;;;;;5.82;5.28;;;;;;;28.60;42.00;101148.13;6185596;28;20690;-64
2021/07/12 10:48:35;;;;;;;5.72;5.28;;;;;;;29.25;40.53;101139.25;6180322;28;20230;-64
2021/07/12 10:51:57;;;;;;;5.72;5.22;;;;;;;29.12;41.44;101149.28;6184193;28;20332;-63
2021/07/12 10:55:29;;;;;;;5.15;4.72;;;;;;;28.81;41.20;101143.72;6187596;28;20688;-64
2021/07/12 10:58:53;;;;;;;5.68;4.88;;;;;;;29.27;40.56;101138.25;6171500;28;20225;-62
2021/07/12 11:02:31;;;;;;;5.68;5.28;;;;;;;29.10;40.94;101139.59;6176919;28;20230;-65
2021/07/12 11:05:52;;;;;;;6.13;5.47;;;;;;;29.65;39.82;101130.50;6177673;28;20325;-62
2021/07/12 11:09:14;;;;;;;5.57;5.18;;;;;;;29.40;39.51;101126.38;6175415;28;20242;-66
2021/07/12 11:12:39;;;;;;;5.60;5.28;;;;;;;29.74;38.87;101128.91;6180366;28;20226;-65
2021/07/12 11:16:15;;;;;;;6.50;5.90;;;;;;;29.34;39.73;101123.34;6169515;28;20234;-66
2021/07/12 11:19:45;;;;;;;5.95;5.45;;;;;;;29.34;39.94;101120.66;6178261;28;20233;-68
2021/07/12 11:23:07;;;;;;;5.93;5.53;;;;;;;28.71;40.80;101118.63;6179166;28;20230;-66
2021/07/12 11:26:52;;;;;;;5.50;5.10;;;;;;;29.36;40.25;101114.19;6177493;28;20242;-66
2021/07/12 11:30:26;;;;;;;5.78;5.20;;;;;;;30.14;38.32;101103.13;6175600;28;20230;-66
2021/07/12 11:33:48;;;;;;;7.18;6.45;;;;;;;29.45;38.78;101093.81;6179529;28;20223;-66
2021/07/12 11:37:12;;;;;;;7.72;4.95;;;;;;;30.39;37.96;101097.31;6168535;28;20290;-66
2021/07/12 11:40:33;;;;;;;6.00;5.47;;;;;;;29.98;37.42;101091.03;6179884;28;20249;-66
2021/07/12 11:44:07;;;;;;;4.75;4.45;;;;;;;29.16;38.52;101096.22;6181889;28;20241;-65
2021/07/12 11:47:30;;;;;;;5.57;5.07;;;;;;;29.48;38.48;101090.84;6179433;28;20229;-65
2021/07/12 11:50:52;;;;;;;5.00;4.60;;;;;;;30.21;37.35;101085.50;6175014;28;20253;-65
2021/07/12 11:54:17;;;;;;;5.65;5.15;;;;;;;30.21;37.27;101093.56;6181022;28;20242;-66
2021/07/12 11:57:40;;;;;;;5.78;4.90;;;;;;;30.28;35.84;101093.84;6183258;28;20226;-66
2021/07/12 12:01:03;;;;;;;4.38;4.07;;;;;;;30.21;36.71;101075.59;6178044;28;20503;-66
2021/07/12 12:04:24;;;;;;;5.05;4.22;;;;;;;30.74;36.55;101073.66;6180483;28;20230;-64
2021/07/12 12:07:47;;;;;;;4.75;4.45;;;;;;;31.33;35.76;101070.03;6180832;28;20233;-65
2021/07/12 12:11:08;;;;;;;4.57;4.28;;;;;;;31.11;35.14;101057.72;6181427;28;20226;-64
2021/07/12 12:14:29;;;;;;;4.60;3.58;;;;;;;30.33;36.60;101057.56;6182307;28;20228;-65
2021/07/12 12:17:54;;;;;;;4.50;4.20;;;;;;;29.84;37.04;101064.56;6183683;28;20235;-65
2021/07/12 12:21:15;;;;;;;4.65;4.20;;;;;;;29.52;38.07;101060.09;6186779;28;20250;-65
2021/07/12 12:24:37;;;;;;;5.22;4.78;;;;;;;29.99;36.78;101060.53;6187640;28;20975;-64
2021/07/12 12:27:58;;;;;;;4.63;4.22;;;;;;;30.24;36.30;101055.66;6181336;28;20233;-67
2021/07/12 12:31:21;;;;;;;4.55;4.25;;;;;;;29.58;37.72;101053.34;6182620;28;20348;-64
2021/07/12 12:34:44;;;;;;;4.30;3.88;;;;;;;29.21;39.52;101060.00;6176976;28;20237;-66
2021/07/12 12:38:14;;;;;;;4.30;3.90;;;;;;;29.09;39.97;101054.81;6180393;28;20261;-69
2021/07/12 12:41:37;;;;;;;5.13;4.60;;;;;;;28.70;41.06;101066.03;6180151;28;20222;-73
2021/07/12 12:44:58;;;;;;;5.30;4.32;;;;;;;28.55;41.48;101059.22;6180255;28;20471;-71
2021/07/12 12:48:36;;;;;;;5.05;4.65;;;;;;;28.86;41.33;101057.56;6175400;28;20378;-67
2021/07/12 12:51:59;;;;;;;5.70;5.25;;;;;;;28.88;41.28;101052.94;6186257;28;20230;-68
2021/07/12 12:55:27;;;;;;;4.20;3.97;;;;;;;28.69;41.61;101055.41;6180094;28;20646;-70
2021/07/12 12:58:55;;;;;;;5.18;4.88;;;;;;;28.78;40.97;101062.72;6181224;28;20242;-67
2021/07/12 13:02:20;;;;;;;4.32;4.03;;;;;;;28.81;41.35;101066.00;6177537;28;20233;-68
2021/07/12 13:05:41;;;;;;;5.20;4.90;;;;;;;28.21;42.17;101064.59;6187859;28;20246;-69
2021/07/12 13:09:04;;;;;;;5.07;4.78;;;;;;;27.96;42.74;101053.16;6180652;28;20599;-66
2021/07/12 13:12:25;;;;;;;6.40;5.80;;;;;;;28.05;43.88;101052.44;6176922;28;20222;-68
2021/07/12 13:15:46;;;;;;;5.88;5.40;;;;;;;28.04;45.20;101050.72;6176397;28;20234;-68
2021/07/12 13:19:07;;;;;;;6.35;5.93;;;;;;;28.02;46.21;101052.66;6164968;28;20257;-68
2021/07/12 13:22:30;;;;;;;5.55;5.15;;;;;;;28.58;45.91;101053.63;6174628;28;20234;-69
2021/07/12 13:25:52;;;;;;;5.43;4.90;;;;;;;28.96;46.02;101045.09;6177346;28;20245;-67
2021/07/12 13:29:13;;;;;;;6.47;5.97;;;;;;;29.24;45.98;101049.03;6172120;28;20584;-67
2021/07/12 13:32:34;;;;;;;5.75;5.07;;;;;;;30.88;42.05;101032.06;6170838;28;20325;-69
2021/07/12 13:35:56;;;;;;;6.05;5.55;;;;;;;29.34;44.72;101024.97;6169949;28;20241;-69
2021/07/12 13:39:18;;;;;;;5.18;4.88;;;;;;;28.81;45.63;101047.22;6180905;28;20700;-74
2021/07/12 13:42:40;;;;;;;5.93;5.43;;;;;;;28.13;46.39;101048.28;6180278;28;20301;-71
2021/07/12 13:46:01;;;;;;;6.50;5.25;;;;;;;27.86;46.27;101044.97;6170865;28;20239;-70
2021/07/12 13:49:24;;;;;;;5.78;5.38;;;;;;;28.21;45.43;101048.53;6179325;28;20229;-69
2021/07/12 13:52:46;;;;;;;5.72;5.32;;;;;;;27.79;45.98;101038.38;6182563;28;20320;-69
2021/07/12 13:56:07;;;;;;;5.47;5.18;;;;;;;27.90;45.79;101034.91;6180498;28;20217;-70
2021/07/12 13:59:29;;;;;;;6.07;5.40;;;;;;;28.14;45.60;101039.28;6182029;28;20368;-52
2021/07/12 14:02:51;;;;;;;6.57;6.10;;;;;;;27.98;45.71;101035.16;6183175;28;20230;-52
2021/07/12 14:06:11;;;;;;;6.82;6.22;;;;;;;28.18;45.23;101030.03;6176280;28;20314;-51
2021/07/12 14:09:33;;;;;;;6.18;5.75;;;;;;;28.30;45.14;101034.41;6173961;28;20249;-50
2021/07/12 14:12:54;;;;;;;6.10;5.70;;;;;;;28.32;44.75;101032.44;6175986;28;20461;-51
2021/07/12 14:16:21;;;;;;;7.25;6.68;;;;;;;28.42;44.79;101032.53;6181735;28;20487;-51
2021/07/12 14:19:43;;;;;;;5.43;5.07;;;;;;;28.54;44.41;101028.03;6176078;28;20246;-52
2021/07/12 14:23:04;;;;;;;6.53;5.88;;;;;;;28.46;44.48;101034.88;6175061;28;20329;-48
2021/07/12 14:26:25;;;;;;;6.88;5.68;;;;;;;28.31;44.21;101029.91;6184554;28;20325;-53
2021/07/12 14:29:46;;;;;;;5.05;4.75;;;;;;;28.43;43.68;101024.41;6185027;28;20261;-51
2021/07/12 14:33:08;;;;;;;6.80;4.65;;;;;;;28.53;43.00;101018.31;6175296;28;20230;-49
2021/07/12 14:36:29;;;;;;;4.57;4.28;;;;;;;28.96;42.15;101012.09;6182494;28;20230;-49
2021/07/12 14:39:50;;;;;;;4.45;4.05;;;;;;;29.42;41.63;101003.69;6183252;28;20237;-48
2021/07/12 14:43:11;;;;;;;5.22;4.45;;;;;;;29.25;41.29;100994.44;6179184;28;20261;-51
2021/07/12 14:46:32;;;;;;;4.25;4.05;;;;;;;29.02;41.93;100987.44;6179621;28;20237;-51
2021/07/12 14:49:54;;;;;;;5.35;3.75;;;;;;;28.85;41.10;100992.41;6174585;28;20241;-53
2021/07/12 14:53:15;;;;;;;4.05;3.70;;;;;;;29.10;40.79;100992.16;6182103;28;20249;-52
2021/07/12 14:56:36;;;;;;;4.88;4.10;;;;;;;29.52;40.83;100990.34;6179454;28;20233;-48
2021/07/12 14:59:57;;;;;;;4.35;3.72;;;;;;;29.28;41.14;100989.78;6178958;28;20261;-50
2021/07/12 15:03:17;;;;;;;5.03;4.30;;;;;;;29.31;41.45;100993.03;6185953;28;20233;-49
2021/07/12 15:06:40;;;;;;;4.50;4.10;;;;;;;29.36;41.30;100989.97;6183939;28;20257;-47
2021/07/12 15:10:01;;;;;;;4.38;4.07;;;;;;;29.20;41.41;100985.91;6183523;28;20242;-53
2021/07/12 15:13:21;;;;;;;4.55;4.15;;;;;;;28.97;41.60;100989.66;6182956;28;20241;-50
2021/07/12 15:16:43;;;;;;;4.68;3.70;;;;;;;28.96;41.72;100982.59;6182399;28;20261;-53
2021/07/12 15:20:04;;;;;;;4.65;4.35;;;;;;;28.95;41.71;100983.59;6182126;28;20336;-50
2021/07/12 15:23:27;;;;;;;3.75;3.55;;;;;;;29.04;41.54;100980.09;6189752;28;20313;-50
2021/07/12 15:26:48;;;;;;;4.32;3.92;;;;;;;28.56;42.94;100985.94;6187044;28;20234;-48
2021/07/12 15:30:12;;;;;;;4.10;3.80;;;;;;;27.87;44.11;100976.25;6185826;28;20322;-52
2021/07/12 15:33:33;;;;;;;7.00;6.40;;;;;;;27.90;44.27;100978.72;6181872;28;20249;-53
2021/07/12 15:36:53;;;;;;;4.85;4.55;;;;;;;28.03;44.22;100979.44;6183751;28;20234;-52
2021/07/12 15:40:17;;;;;;;7.25;6.82;;;;;;;28.42;43.88;100974.50;6186102;28;20242;-47
2021/07/12 15:43:38;;;;;;;9.13;8.35;;;;;;;29.02;42.51;100971.34;6178313;28;20329;-52
2021/07/12 15:47:01;;;;;;;4.85;4.55;;;;;;;29.07;42.18;100963.78;6183969;28;20234;-50